createdAt,value
2019-01-24T00:01:30.934Z,79.82
2019-01-24T00:03:58.673Z,79.86
2019-01-24T00:06:26.395Z,79.92
2019-01-24T00:08:54.182Z,80.24
2019-01-24T00:11:21.914Z,80.12
2019-01-24T00:13:49.674Z,80.40
2019-01-24T00:16:17.421Z,80.35
2019-01-24T00:18:45.201Z,80.42
2019-01-24T00:21:12.931Z,80.60
2019-01-24T00:23:40.701Z,80.31
2019-01-24T00:26:08.418Z,80.39
2019-01-24T00:28:36.346Z,80.32
2019-01-24T00:31:04.107Z,80.56
2019-01-24T00:33:31.886Z,80.77
2019-01-24T00:35:59.674Z,80.76
2019-01-24T00:38:27.608Z,80.70
2019-01-24T00:40:55.464Z,80.79
2019-01-24T00:43:23.340Z,80.86
2019-01-24T00:45:51.086Z,80.80
2019-01-24T00:48:18.965Z,80.96
2019-01-24T00:50:46.720Z,81.12
2019-01-24T00:53:14.440Z,81.31
2019-01-24T00:55:42.191Z,81.46
2019-01-24T00:58:10.138Z,81.48
2019-01-24T01:00:38.053Z,81.52
2019-01-24T01:03:06.045Z,81.52
2019-01-24T01:05:33.794Z,81.52
2019-01-24T01:08:01.663Z,81.57
2019-01-24T01:10:29.594Z,81.57
2019-01-24T01:12:57.348Z,81.43
2019-01-24T01:15:25.280Z,81.37
2019-01-24T01:17:53.024Z,81.57
2019-01-24T01:20:22.407Z,81.79
2019-01-24T01:22:50.259Z,81.85
2019-01-24T01:25:18.518Z,81.93
2019-01-24T01:27:46.258Z,81.98
2019-01-24T01:30:22.839Z,82.12
2019-01-24T01:32:51.640Z,82.13
2019-01-24T01:35:19.652Z,82.01
2019-01-24T01:37:47.612Z,82.06
2019-01-24T01:40:16.627Z,82.08
2019-01-24T01:42:44.859Z,82.15
2019-01-24T01:45:15.999Z,82.11
2019-01-24T01:47:43.849Z,82.21
2019-01-24T01:50:15.544Z,82.36
2019-01-24T01:52:43.329Z,82.67
2019-01-24T01:55:11.894Z,82.71
2019-01-24T01:57:39.641Z,82.90
2019-01-24T02:00:13.126Z,82.87
2019-01-24T02:02:40.887Z,83.58
2019-01-24T02:05:09.592Z,83.32
2019-01-24T02:07:37.356Z,82.99
2019-01-24T02:10:09.407Z,82.71
2019-01-24T02:12:37.219Z,82.09
2019-01-24T02:15:07.189Z,81.05
2019-01-24T02:17:34.953Z,80.53
2019-01-24T02:20:05.902Z,80.31
2019-01-24T02:22:33.677Z,79.69
2019-01-24T02:25:01.454Z,79.09
2019-01-24T02:27:29.217Z,78.75
2019-01-24T02:29:56.951Z,78.33
2019-01-24T02:32:24.703Z,78.03
2019-01-24T02:34:52.618Z,77.53
2019-01-24T02:37:20.382Z,76.98
2019-01-24T02:39:48.098Z,76.70
2019-01-24T02:42:15.863Z,76.59
2019-01-24T02:44:43.754Z,76.14
2019-01-24T02:47:11.705Z,76.07
2019-01-24T02:49:39.449Z,76.00
2019-01-24T02:52:07.408Z,75.75
2019-01-24T02:54:35.177Z,75.89
2019-01-24T02:57:03.275Z,75.56
2019-01-24T02:59:31.216Z,75.82
2019-01-24T03:01:59.000Z,75.58
2019-01-24T03:04:26.994Z,75.51
2019-01-24T03:06:54.776Z,75.62
2019-01-24T03:09:22.513Z,75.17
2019-01-24T03:11:50.442Z,75.77
2019-01-24T03:14:18.177Z,75.63
2019-01-24T03:16:45.933Z,75.43
2019-01-24T03:19:13.702Z,75.14
2019-01-24T03:21:41.617Z,74.95
2019-01-24T03:24:09.470Z,75.06
2019-01-24T03:26:37.371Z,75.11
2019-01-24T03:29:05.185Z,74.84
2019-01-24T03:31:32.985Z,74.63
2019-01-24T03:34:00.775Z,74.83
2019-01-24T03:36:28.720Z,74.65
2019-01-24T03:38:56.472Z,74.68
2019-01-24T03:41:24.386Z,74.92
2019-01-24T03:43:52.130Z,75.03
2019-01-24T03:46:20.040Z,75.16
2019-01-24T03:48:47.804Z,75.48
2019-01-24T03:51:15.723Z,75.32
2019-01-24T03:53:43.482Z,75.15
2019-01-24T03:56:11.351Z,75.41
2019-01-24T03:58:39.058Z,75.31
2019-01-24T04:01:07.000Z,75.36
2019-01-24T04:03:34.867Z,75.33
2019-01-24T04:06:02.970Z,75.60
2019-01-24T04:08:30.877Z,75.42
2019-01-24T04:10:58.597Z,75.31
2019-01-24T04:13:26.473Z,75.48
2019-01-24T04:15:54.376Z,75.46
2019-01-24T04:18:22.302Z,75.68
2019-01-24T04:20:50.248Z,76.01
2019-01-24T04:23:18.169Z,76.05
2019-01-24T04:25:46.071Z,75.99
2019-01-24T04:28:14.026Z,75.70
2019-01-24T04:30:41.741Z,75.75
2019-01-24T04:33:09.563Z,75.70
2019-01-24T04:35:37.288Z,75.82
2019-01-24T04:38:05.212Z,76.19
2019-01-24T04:40:32.955Z,76.16
2019-01-24T04:43:00.671Z,75.44
2019-01-24T04:45:28.413Z,75.81
2019-01-24T04:47:56.938Z,76.19
2019-01-24T04:50:24.741Z,76.21
2019-01-24T04:52:52.657Z,75.91
2019-01-24T04:55:20.755Z,75.54
2019-01-24T04:57:49.242Z,75.40
2019-01-24T05:00:25.899Z,75.88
2019-01-24T05:02:53.977Z,75.48
2019-01-24T05:05:27.713Z,75.13
2019-01-24T05:07:51.455Z,75.41
2019-01-24T05:10:19.222Z,74.94
2019-01-24T05:12:47.106Z,74.68
2019-01-24T05:15:15.840Z,74.69
2019-01-24T05:17:43.893Z,74.55
2019-01-24T05:20:11.947Z,74.82
2019-01-24T05:22:39.862Z,74.88
2019-01-24T05:25:10.498Z,74.61
2019-01-24T05:27:38.282Z,74.42
2019-01-24T05:30:19.756Z,73.86
2019-01-24T05:32:47.516Z,73.49
2019-01-24T05:35:15.287Z,73.85
2019-01-24T05:37:43.322Z,73.66
2019-01-24T05:40:11.080Z,73.66
2019-01-24T05:42:38.792Z,73.81
2019-01-24T05:45:07.579Z,73.49
2019-01-24T05:47:35.500Z,73.86
2019-01-24T05:50:04.488Z,73.66
2019-01-24T05:52:32.410Z,73.89
2019-01-24T05:55:00.218Z,74.23
2019-01-24T05:57:28.248Z,73.47
2019-01-24T05:59:55.991Z,73.64
2019-01-24T06:02:23.926Z,73.79
2019-01-24T06:04:51.666Z,74.34
2019-01-24T06:07:19.423Z,74.05
2019-01-24T06:09:47.188Z,74.25
2019-01-24T06:12:15.121Z,74.08
2019-01-24T06:14:43.011Z,73.76
2019-01-24T06:17:10.935Z,73.91
2019-01-24T06:19:38.679Z,74.04
2019-01-24T06:22:06.409Z,73.38
2019-01-24T06:24:34.147Z,73.39
2019-01-24T06:27:01.934Z,72.81
2019-01-24T06:29:29.697Z,72.79
2019-01-24T06:31:57.437Z,73.36
2019-01-24T06:34:25.159Z,73.09
2019-01-24T06:36:52.933Z,72.75
2019-01-24T06:39:20.699Z,73.07
2019-01-24T06:41:48.450Z,72.42
2019-01-24T06:44:16.217Z,72.51
2019-01-24T06:46:46.819Z,73.05
2019-01-24T06:49:14.605Z,73.02
2019-01-24T06:51:42.354Z,73.00
2019-01-24T06:54:10.121Z,73.04
2019-01-24T06:56:37.851Z,73.13
2019-01-24T06:59:05.638Z,73.29
2019-01-24T07:01:33.396Z,73.15
2019-01-24T07:04:01.308Z,72.90
2019-01-24T07:06:29.099Z,72.60
2019-01-24T07:08:56.874Z,72.34
2019-01-24T07:11:24.626Z,72.14
2019-01-24T07:13:52.559Z,72.21
2019-01-24T07:16:20.322Z,72.07
2019-01-24T07:18:48.228Z,71.83
2019-01-24T07:21:15.994Z,72.06
2019-01-24T07:23:43.920Z,72.28
2019-01-24T07:26:11.824Z,72.38
2019-01-24T07:28:39.724Z,72.42
2019-01-24T07:31:07.496Z,71.46
2019-01-24T07:33:35.236Z,71.74
2019-01-24T07:36:03.237Z,71.30
2019-01-24T07:38:30.965Z,71.58
2019-01-24T07:40:58.902Z,71.57
2019-01-24T07:43:26.824Z,71.85
2019-01-24T07:45:54.735Z,71.96
2019-01-24T07:48:22.464Z,71.93
2019-01-24T07:50:50.425Z,71.98
2019-01-24T07:53:18.142Z,71.26
2019-01-24T07:55:46.075Z,71.26
2019-01-24T07:58:13.830Z,71.03
2019-01-24T08:00:41.643Z,71.37
2019-01-24T08:03:09.397Z,70.90
2019-01-24T08:05:37.960Z,70.55
2019-01-24T08:08:05.883Z,70.27
2019-01-24T08:10:33.587Z,70.00
2019-01-24T08:13:01.386Z,69.62
2019-01-24T08:15:29.307Z,69.68
2019-01-24T08:17:57.097Z,70.41
2019-01-24T08:20:26.087Z,69.88
2019-01-24T08:22:53.898Z,69.56
2019-01-24T08:25:21.756Z,69.95
2019-01-24T08:27:49.533Z,69.49
2019-01-24T08:30:29.267Z,69.24
2019-01-24T08:32:57.019Z,69.49
2019-01-24T08:35:24.972Z,69.85
2019-01-24T08:37:52.688Z,69.80
2019-01-24T08:40:20.692Z,70.04
2019-01-24T08:42:48.446Z,70.00
2019-01-24T08:45:16.895Z,69.66
2019-01-24T08:47:44.952Z,69.59
2019-01-24T08:50:17.699Z,69.92
2019-01-24T08:52:45.609Z,70.06
2019-01-24T08:55:37.963Z,69.66
2019-01-24T08:58:06.515Z,69.79
2019-01-24T09:00:34.383Z,69.54
2019-01-24T09:03:02.243Z,69.53
2019-01-24T09:05:29.987Z,69.64
2019-01-24T09:07:57.770Z,69.22
2019-01-24T09:10:29.662Z,69.32
2019-01-24T09:12:57.618Z,69.82
2019-01-24T09:15:25.464Z,69.82
2019-01-24T09:17:53.198Z,69.96
2019-01-24T09:20:21.024Z,70.10
2019-01-24T09:22:54.955Z,69.86
2019-01-24T09:25:18.567Z,70.18
2019-01-24T09:27:46.380Z,70.24
2019-01-24T09:30:17.823Z,70.86
2019-01-24T09:32:45.663Z,70.37
2019-01-24T09:35:14.164Z,70.12
2019-01-24T09:37:42.063Z,69.72
2019-01-24T09:40:11.366Z,69.90
2019-01-24T09:42:39.333Z,69.71
2019-01-24T09:45:11.363Z,70.08
2019-01-24T09:48:01.510Z,69.93
2019-01-24T09:50:29.645Z,70.36
2019-01-24T09:52:57.656Z,70.60
2019-01-24T09:55:25.595Z,70.12
2019-01-24T09:57:53.506Z,70.07
2019-01-24T10:00:35.508Z,70.36
2019-01-24T10:03:06.410Z,70.44
2019-01-24T10:05:34.065Z,70.08
2019-01-24T10:08:01.985Z,69.72
2019-01-24T10:10:29.775Z,68.97
2019-01-24T10:12:57.829Z,69.12
2019-01-24T10:15:25.835Z,69.14
2019-01-24T10:17:53.636Z,68.88
2019-01-24T10:20:23.335Z,67.87
2019-01-24T10:22:51.077Z,67.20
2019-01-24T10:25:22.211Z,67.25
2019-01-24T10:27:49.925Z,66.90
2019-01-24T10:30:19.757Z,67.04
2019-01-24T10:32:47.521Z,67.19
2019-01-24T10:35:15.402Z,67.32
2019-01-24T10:37:43.408Z,67.35
2019-01-24T10:40:27.353Z,67.23
2019-01-24T10:42:55.621Z,66.49
2019-01-24T10:45:23.468Z,66.43
2019-01-24T10:47:51.693Z,66.15
2019-01-24T10:50:21.175Z,66.05
2019-01-24T10:52:49.053Z,66.36
2019-01-24T10:55:19.474Z,66.95
2019-01-24T10:57:47.464Z,66.86
2019-01-24T11:00:27.190Z,66.83
2019-01-24T11:02:54.980Z,66.54
2019-01-24T11:05:22.700Z,66.66
2019-01-24T11:07:50.554Z,66.18
2019-01-24T11:10:18.798Z,66.42
2019-01-24T11:12:47.101Z,67.14
2019-01-24T11:15:17.799Z,67.30
2019-01-24T11:17:45.589Z,66.34
2019-01-24T11:20:14.463Z,66.06
2019-01-24T11:22:42.253Z,65.21
2019-01-24T11:25:13.876Z,65.32
2019-01-24T11:27:43.242Z,65.08
2019-01-24T11:30:17.766Z,65.28
2019-01-24T11:32:45.558Z,65.91
2019-01-24T11:35:14.963Z,65.68
2019-01-24T11:37:42.766Z,66.27
2019-01-24T11:40:13.522Z,67.68
2019-01-24T11:42:41.294Z,66.74
2019-01-24T11:45:10.714Z,66.21
2019-01-24T11:47:38.552Z,65.92
2019-01-24T11:50:10.605Z,66.57
2019-01-24T11:52:38.375Z,66.30
2019-01-24T11:55:07.221Z,66.09
2019-01-24T11:57:34.984Z,66.11
2019-01-24T12:00:03.938Z,65.99
2019-01-24T12:02:31.705Z,66.21
2019-01-24T12:04:59.458Z,66.62
2019-01-24T12:07:27.186Z,65.76
2019-01-24T12:09:54.975Z,65.05
2019-01-24T12:12:22.710Z,65.55
2019-01-24T12:14:50.461Z,65.93
2019-01-24T12:17:18.193Z,65.62
2019-01-24T12:19:45.947Z,65.42
2019-01-24T12:22:13.709Z,64.62
2019-01-24T12:24:41.435Z,65.91
2019-01-24T12:27:09.200Z,66.43
2019-01-24T12:29:36.953Z,65.75
2019-01-24T12:32:04.721Z,66.68
2019-01-24T12:34:32.485Z,66.15
2019-01-24T12:37:00.239Z,65.62
2019-01-24T12:39:28.017Z,65.22
2019-01-24T12:41:55.759Z,65.60
2019-01-24T12:44:23.499Z,65.50
2019-01-24T12:46:51.241Z,65.81
2019-01-24T12:49:18.992Z,65.84
2019-01-24T12:51:46.772Z,65.83
2019-01-24T12:54:14.520Z,66.89
2019-01-24T12:56:42.364Z,67.20
2019-01-24T12:59:10.133Z,66.90
2019-01-24T13:01:37.886Z,66.70
2019-01-24T13:04:05.630Z,66.42
2019-01-24T13:06:34.021Z,67.11
2019-01-24T13:09:01.901Z,67.76
2019-01-24T13:11:29.666Z,66.93
2019-01-24T13:13:57.398Z,67.06
2019-01-24T13:16:25.166Z,67.16
2019-01-24T13:18:52.936Z,66.68
2019-01-24T13:21:20.696Z,66.82
2019-01-24T13:23:48.486Z,66.96
2019-01-24T13:26:16.257Z,66.68
2019-01-24T13:28:44.015Z,66.81
2019-01-24T13:31:11.788Z,66.70
2019-01-24T13:33:39.576Z,66.72
2019-01-24T13:36:07.473Z,66.64
2019-01-24T13:38:35.226Z,65.93
2019-01-24T13:41:03.129Z,66.31
2019-01-24T13:43:30.982Z,66.76
2019-01-24T13:45:58.750Z,66.24
2019-01-24T13:48:26.505Z,66.76
2019-01-24T13:50:54.542Z,66.35
2019-01-24T13:53:22.260Z,65.99
2019-01-24T13:55:50.027Z,66.51
2019-01-24T13:58:17.818Z,66.02
2019-01-24T14:00:45.635Z,65.82
2019-01-24T14:03:56.141Z,65.80
2019-01-24T14:06:23.925Z,65.86
2019-01-24T14:08:51.651Z,65.74
2019-01-24T14:11:19.437Z,66.28
2019-01-24T14:13:47.206Z,66.31
2019-01-24T14:16:15.008Z,66.69
2019-01-24T14:18:42.770Z,66.75
2019-01-24T14:21:10.559Z,66.79
2019-01-24T14:23:41.007Z,67.54
2019-01-24T14:26:08.777Z,66.90
2019-01-24T14:28:36.579Z,67.01
2019-01-24T14:31:04.625Z,67.18
2019-01-24T14:33:32.367Z,67.44
2019-01-24T14:36:00.155Z,67.06
2019-01-24T14:38:27.875Z,67.62
2019-01-24T14:40:55.693Z,67.62
2019-01-24T14:43:23.459Z,67.60
2019-01-24T14:45:51.173Z,67.25
2019-01-24T14:48:19.024Z,67.04
2019-01-24T14:50:46.768Z,67.41
2019-01-24T14:53:14.533Z,67.79
2019-01-24T14:55:42.270Z,67.36
2019-01-24T14:58:10.011Z,68.03
2019-01-24T15:01:01.277Z,68.29
2019-01-24T15:03:29.128Z,68.35
2019-01-24T15:05:56.873Z,67.90
2019-01-24T15:08:24.622Z,67.67
2019-01-24T15:10:52.408Z,67.74
2019-01-24T15:13:20.161Z,67.36
2019-01-24T15:15:50.736Z,67.79
2019-01-24T15:18:18.486Z,68.38
2019-01-24T15:20:46.244Z,68.10
2019-01-24T15:23:14.004Z,67.95
2019-01-24T15:25:41.751Z,68.14
2019-01-24T15:28:09.523Z,68.84
2019-01-24T15:30:37.314Z,68.71
2019-01-24T15:33:05.120Z,68.74
2019-01-24T15:35:32.972Z,68.93
2019-01-24T15:38:00.748Z,69.09
2019-01-24T15:40:29.732Z,69.17
2019-01-24T15:42:57.806Z,68.46
2019-01-24T15:45:25.548Z,69.08
2019-01-24T15:47:53.622Z,68.96
2019-01-24T15:50:21.813Z,69.20
2019-01-24T15:52:50.270Z,69.51
2019-01-24T15:55:18.152Z,69.47
2019-01-24T15:57:45.957Z,69.89
2019-01-24T16:00:23.766Z,70.39
2019-01-24T16:02:51.627Z,70.86
2019-01-24T16:05:19.406Z,71.22
2019-01-24T16:07:47.281Z,70.93
2019-01-24T16:10:16.473Z,71.13
2019-01-24T16:12:44.232Z,70.61
2019-01-24T16:15:16.133Z,70.78
2019-01-24T16:17:43.954Z,71.20
2019-01-24T16:20:15.905Z,71.04
2019-01-24T16:22:43.699Z,71.28
2019-01-24T16:25:12.953Z,71.72
2019-01-24T16:27:40.819Z,71.94
2019-01-24T16:30:14.158Z,72.01
2019-01-24T16:32:41.933Z,71.64
2019-01-24T16:35:10.501Z,71.74
2019-01-24T16:37:38.387Z,71.58
2019-01-24T16:40:09.699Z,71.94
2019-01-24T16:42:37.458Z,71.53
2019-01-24T16:45:08.973Z,71.42
2019-01-24T16:47:36.715Z,71.84
2019-01-24T16:50:06.833Z,71.29
2019-01-24T16:52:34.669Z,71.55
2019-01-24T16:55:02.866Z,70.97
2019-01-24T16:57:30.620Z,70.60
2019-01-24T16:59:58.369Z,71.19
2019-01-24T17:02:26.143Z,71.47
2019-01-24T17:04:53.918Z,71.74
2019-01-24T17:07:21.796Z,71.79
2019-01-24T17:09:49.526Z,71.95
2019-01-24T17:12:17.422Z,72.26
2019-01-24T17:14:45.174Z,72.43
2019-01-24T17:17:13.436Z,72.84
2019-01-24T17:19:41.257Z,73.10
2019-01-24T17:22:09.060Z,72.44
2019-01-24T17:24:36.803Z,72.26
2019-01-24T17:27:04.624Z,72.47
2019-01-24T17:29:32.388Z,72.72
2019-01-24T17:32:00.185Z,72.21
2019-01-24T17:34:27.914Z,71.97
2019-01-24T17:36:55.710Z,71.34
2019-01-24T17:39:23.456Z,71.40
2019-01-24T17:41:51.236Z,71.48
2019-01-24T17:44:18.974Z,71.73
2019-01-24T17:46:46.739Z,71.54
2019-01-24T17:49:14.508Z,71.82
2019-01-24T17:51:42.268Z,72.52
2019-01-24T17:54:10.523Z,72.27
2019-01-24T17:56:38.288Z,72.02
2019-01-24T17:59:06.060Z,71.79
2019-01-24T18:01:33.922Z,71.81
2019-01-24T18:04:01.696Z,71.59
2019-01-24T18:06:29.475Z,71.47
2019-01-24T18:08:57.247Z,71.73
2019-01-24T18:11:25.021Z,71.06
2019-01-24T18:13:52.891Z,71.63
2019-01-24T18:16:20.682Z,71.69
2019-01-24T18:18:48.493Z,71.59
2019-01-24T18:21:16.276Z,71.87
2019-01-24T18:23:44.061Z,71.90
2019-01-24T18:26:11.827Z,72.15
2019-01-24T18:28:39.599Z,72.50
2019-01-24T18:31:07.377Z,72.78
2019-01-24T18:33:35.179Z,72.56
2019-01-24T18:36:03.250Z,72.39
2019-01-24T18:38:31.047Z,72.58
2019-01-24T18:40:58.920Z,72.18
2019-01-24T18:43:27.470Z,71.87
2019-01-24T18:45:58.459Z,72.38
2019-01-24T18:48:26.255Z,72.41
2019-01-24T18:50:53.990Z,72.61
2019-01-24T18:53:21.771Z,71.84
2019-01-24T18:55:49.554Z,72.47
2019-01-24T18:58:17.322Z,73.40
2019-01-24T19:00:46.343Z,72.73
2019-01-24T19:03:14.359Z,72.49
2019-01-24T19:05:43.044Z,71.67
2019-01-24T19:08:11.077Z,72.06
2019-01-24T19:10:38.855Z,72.04
2019-01-24T19:13:08.168Z,72.29
2019-01-24T19:15:36.309Z,72.06
2019-01-24T19:18:07.757Z,71.79
2019-01-24T19:20:35.546Z,71.83
2019-01-24T19:23:03.602Z,72.25
2019-01-24T19:25:31.412Z,72.09
2019-01-24T19:27:59.206Z,71.37
2019-01-24T19:30:29.795Z,71.85
2019-01-24T19:32:57.638Z,72.09
2019-01-24T19:35:26.092Z,72.11
2019-01-24T19:37:53.892Z,72.04
2019-01-24T19:40:22.573Z,72.21
2019-01-24T19:42:50.455Z,71.99
2019-01-24T19:45:20.410Z,72.09
2019-01-24T19:47:48.413Z,72.35
2019-01-24T19:50:19.438Z,72.42
2019-01-24T19:52:47.228Z,72.47
2019-01-24T19:55:16.786Z,72.48
2019-01-24T19:57:44.630Z,71.97
2019-01-24T20:00:19.233Z,71.96
2019-01-24T20:02:47.228Z,71.85
2019-01-24T20:05:16.410Z,72.10
2019-01-24T20:07:44.448Z,71.78
2019-01-24T20:10:15.943Z,71.68
2019-01-24T20:12:43.970Z,71.58
2019-01-24T20:15:15.174Z,71.47
2019-01-24T20:17:42.923Z,71.17
2019-01-24T20:20:12.612Z,71.13
2019-01-24T20:22:40.502Z,71.04
2019-01-24T20:25:11.567Z,70.92
2019-01-24T20:27:39.445Z,71.28
2019-01-24T20:30:14.639Z,71.47
2019-01-24T20:32:42.400Z,71.28
2019-01-24T20:35:15.051Z,71.64
2019-01-24T20:37:43.946Z,71.51
2019-01-24T20:40:12.235Z,72.08
2019-01-24T20:42:40.138Z,71.89
2019-01-24T20:45:08.345Z,72.29
2019-01-24T20:47:36.149Z,72.19
2019-01-24T20:50:04.723Z,72.07
2019-01-24T20:52:32.487Z,71.68
2019-01-24T20:55:00.344Z,71.95
2019-01-24T20:57:28.173Z,72.17
2019-01-24T20:59:55.966Z,72.27
2019-01-24T21:02:23.709Z,72.13
2019-01-24T21:04:51.515Z,72.34
2019-01-24T21:07:19.286Z,72.27
2019-01-24T21:09:47.066Z,72.15
2019-01-24T21:12:14.837Z,72.26
2019-01-24T21:14:42.616Z,72.23
2019-01-24T21:17:10.402Z,72.79
2019-01-24T21:19:38.208Z,73.00
2019-01-24T21:22:06.007Z,73.24
2019-01-24T21:24:33.820Z,73.44
2019-01-24T21:27:01.570Z,73.74
2019-01-24T21:29:29.355Z,73.73
2019-01-24T21:31:57.082Z,73.68
2019-01-24T21:34:24.877Z,73.34
2019-01-24T21:36:53.069Z,73.67
2019-01-24T21:39:22.376Z,73.50
2019-01-24T21:41:50.288Z,73.74
2019-01-24T21:44:18.065Z,73.82
2019-01-24T21:46:45.803Z,73.51
2019-01-24T21:49:13.609Z,73.60
2019-01-24T21:51:41.378Z,73.71
2019-01-24T21:54:09.122Z,73.83
2019-01-24T21:56:36.901Z,74.03
2019-01-24T21:59:04.681Z,73.79
2019-01-24T22:01:32.500Z,74.02
2019-01-24T22:04:00.261Z,73.89
2019-01-24T22:06:28.057Z,73.92
2019-01-24T22:08:55.819Z,74.17
2019-01-24T22:11:23.564Z,74.29
2019-01-24T22:13:51.303Z,74.33
2019-01-24T22:16:19.073Z,74.66
2019-01-24T22:18:46.819Z,74.46
2019-01-24T22:21:14.631Z,74.80
2019-01-24T22:23:42.387Z,75.04
2019-01-24T22:26:10.195Z,74.70
2019-01-24T22:28:40.005Z,74.88
2019-01-24T22:31:07.878Z,74.84
2019-01-24T22:33:35.633Z,75.15
2019-01-24T22:36:03.844Z,75.19
2019-01-24T22:38:31.569Z,75.34
2019-01-24T22:40:59.357Z,75.56
2019-01-24T22:43:27.113Z,75.50
2019-01-24T22:45:54.862Z,75.62
2019-01-24T22:48:22.652Z,75.68
2019-01-24T22:50:50.409Z,75.75
2019-01-24T22:53:18.159Z,75.71
2019-01-24T22:55:45.934Z,75.84
2019-01-24T22:58:13.686Z,75.57
2019-01-24T23:02:03.435Z,75.95
2019-01-24T23:04:31.194Z,75.91
2019-01-24T23:06:58.945Z,76.04
2019-01-24T23:09:26.693Z,75.93
2019-01-24T23:11:54.629Z,76.34
2019-01-24T23:14:22.353Z,76.29
2019-01-24T23:16:50.207Z,76.15
2019-01-24T23:19:18.129Z,76.02
2019-01-24T23:21:46.042Z,75.97
2019-01-24T23:24:13.792Z,75.91
2019-01-24T23:26:41.562Z,76.00
2019-01-24T23:29:09.290Z,76.16
2019-01-24T23:31:37.044Z,76.04
2019-01-24T23:34:05.360Z,75.82
2019-01-24T23:36:33.122Z,75.54
2019-01-24T23:39:00.884Z,75.59
2019-01-24T23:41:28.668Z,75.77
2019-01-24T23:43:56.618Z,75.88
2019-01-24T23:46:24.366Z,76.02
2019-01-24T23:48:52.252Z,75.62
2019-01-24T23:51:20.013Z,76.17
2019-01-24T23:53:47.942Z,76.51
2019-01-24T23:56:15.706Z,76.78
2019-01-24T23:58:43.438Z,76.68
